sensor_id;sensor_type;location;lat;lon;timestamp;P1;durP1;ratioP1;P2;durP2;ratioP2
45620;SDS011;31345;51.522;10.702;2023-02-23T00:00:41;21.50;;;13.60;;
45620;SDS011;31345;51.522;10.702;2023-02-23T00:03:15;22.40;;;13.50;;
45620;SDS011;31345;51.522;10.702;2023-02-23T00:05:47;24.73;;;14.55;;
45620;SDS011;31345;51.522;10.702;2023-02-23T00:08:20;22.35;;;13.70;;
45620;SDS011;31345;51.522;10.702;2023-02-23T00:10:54;23.42;;;14.30;;
45620;SDS011;31345;51.522;10.702;2023-02-23T00:13:23;22.15;;;14.60;;
45620;SDS011;31345;51.522;10.702;2023-02-23T00:15:56;20.38;;;12.93;;
45620;SDS011;31345;51.522;10.702;2023-02-23T00:18:28;20.38;;;12.55;;
45620;SDS011;31345;51.522;10.702;2023-02-23T00:21:11;24.20;;;14.20;;
45620;SDS011;31345;51.522;10.702;2023-02-23T00:23:49;23.05;;;14.57;;
45620;SDS011;31345;51.522;10.702;2023-02-23T00:26:19;22.70;;;13.90;;
45620;SDS011;31345;51.522;10.702;2023-02-23T00:28:55;19.98;;;13.18;;
45620;SDS011;31345;51.522;10.702;2023-02-23T00:31:27;22.33;;;13.05;;
45620;SDS011;31345;51.522;10.702;2023-02-23T00:34:01;26.73;;;14.55;;
45620;SDS011;31345;51.522;10.702;2023-02-23T00:36:34;24.73;;;15.38;;
45620;SDS011;31345;51.522;10.702;2023-02-23T00:39:08;21.70;;;12.75;;
45620;SDS011;31345;51.522;10.702;2023-02-23T00:41:52;21.58;;;13.73;;
45620;SDS011;31345;51.522;10.702;2023-02-23T00:44:26;26.35;;;15.25;;
45620;SDS011;31345;51.522;10.702;2023-02-23T00:46:53;21.95;;;13.50;;
45620;SDS011;31345;51.522;10.702;2023-02-23T00:49:26;28.83;;;15.60;;
45620;SDS011;31345;51.522;10.702;2023-02-23T00:51:54;23.05;;;14.60;;
45620;SDS011;31345;51.522;10.702;2023-02-23T00:54:26;27.20;;;15.82;;
45620;SDS011;31345;51.522;10.702;2023-02-23T00:56:55;25.27;;;14.50;;
45620;SDS011;31345;51.522;10.702;2023-02-23T00:59:23;23.83;;;14.57;;
45620;SDS011;31345;51.522;10.702;2023-02-23T01:01:55;23.30;;;15.20;;
45620;SDS011;31345;51.522;10.702;2023-02-23T01:04:23;25.35;;;13.75;;
45620;SDS011;31345;51.522;10.702;2023-02-23T01:06:56;23.83;;;14.60;;
45620;SDS011;31345;51.522;10.702;2023-02-23T01:09:32;23.17;;;13.70;;
45620;SDS011;31345;51.522;10.702;2023-02-23T01:12:06;25.58;;;14.65;;
45620;SDS011;31345;51.522;10.702;2023-02-23T01:14:35;24.75;;;14.18;;
45620;SDS011;31345;51.522;10.702;2023-02-23T01:17:08;24.73;;;14.32;;
45620;SDS011;31345;51.522;10.702;2023-02-23T01:19:41;23.33;;;14.55;;
45620;SDS011;31345;51.522;10.702;2023-02-23T01:22:13;26.23;;;14.30;;
45620;SDS011;31345;51.522;10.702;2023-02-23T01:24:41;27.33;;;16.63;;
45620;SDS011;31345;51.522;10.702;2023-02-23T01:27:15;25.60;;;15.73;;
45620;SDS011;31345;51.522;10.702;2023-02-23T01:29:47;23.52;;;14.88;;
45620;SDS011;31345;51.522;10.702;2023-02-23T01:32:20;24.23;;;14.85;;
45620;SDS011;31345;51.522;10.702;2023-02-23T01:34:47;21.95;;;13.80;;
45620;SDS011;31345;51.522;10.702;2023-02-23T01:37:20;24.30;;;15.15;;
45620;SDS011;31345;51.522;10.702;2023-02-23T01:39:52;28.00;;;15.75;;
45620;SDS011;31345;51.522;10.702;2023-02-23T01:42:23;27.08;;;15.13;;
45620;SDS011;31345;51.522;10.702;2023-02-23T01:45:11;26.65;;;14.77;;
45620;SDS011;31345;51.522;10.702;2023-02-23T01:47:48;21.08;;;13.57;;
45620;SDS011;31345;51.522;10.702;2023-02-23T01:50:24;22.60;;;13.82;;
45620;SDS011;31345;51.522;10.702;2023-02-23T01:52:59;23.92;;;13.85;;
45620;SDS011;31345;51.522;10.702;2023-02-23T01:55:31;24.80;;;14.45;;
45620;SDS011;31345;51.522;10.702;2023-02-23T01:58:07;26.90;;;15.52;;
45620;SDS011;31345;51.522;10.702;2023-02-23T02:00:41;25.35;;;15.02;;
45620;SDS011;31345;51.522;10.702;2023-02-23T02:03:25;23.73;;;14.75;;
45620;SDS011;31345;51.522;10.702;2023-02-23T02:06:03;23.40;;;14.43;;
45620;SDS011;31345;51.522;10.702;2023-02-23T02:08:37;23.02;;;13.73;;
45620;SDS011;31345;51.522;10.702;2023-02-23T02:11:16;21.33;;;13.70;;
45620;SDS011;31345;51.522;10.702;2023-02-23T02:14:02;21.02;;;13.35;;
45620;SDS011;31345;51.522;10.702;2023-02-23T02:16:47;21.70;;;14.18;;
45620;SDS011;31345;51.522;10.702;2023-02-23T02:22:43;21.77;;;13.25;;
45620;SDS011;31345;51.522;10.702;2023-02-23T02:28:26;23.13;;;13.38;;
45620;SDS011;31345;51.522;10.702;2023-02-23T02:31:27;26.08;;;14.82;;
45620;SDS011;31345;51.522;10.702;2023-02-23T02:37:20;22.30;;;14.18;;
45620;SDS011;31345;51.522;10.702;2023-02-23T02:40:13;23.65;;;14.38;;
45620;SDS011;31345;51.522;10.702;2023-02-23T02:42:56;22.02;;;14.23;;
45620;SDS011;31345;51.522;10.702;2023-02-23T02:45:29;18.88;;;12.65;;
45620;SDS011;31345;51.522;10.702;2023-02-23T02:48:03;25.73;;;14.50;;
45620;SDS011;31345;51.522;10.702;2023-02-23T02:50:41;20.75;;;13.65;;
45620;SDS011;31345;51.522;10.702;2023-02-23T02:53:18;20.17;;;13.38;;
45620;SDS011;31345;51.522;10.702;2023-02-23T02:55:54;23.83;;;13.38;;
45620;SDS011;31345;51.522;10.702;2023-02-23T02:58:25;22.05;;;13.30;;
45620;SDS011;31345;51.522;10.702;2023-02-23T03:01:04;23.17;;;13.50;;
45620;SDS011;31345;51.522;10.702;2023-02-23T03:03:56;22.10;;;12.75;;
45620;SDS011;31345;51.522;10.702;2023-02-23T03:06:51;19.73;;;12.73;;
45620;SDS011;31345;51.522;10.702;2023-02-23T03:09:50;23.30;;;12.80;;
45620;SDS011;31345;51.522;10.702;2023-02-23T03:12:49;22.27;;;14.38;;
45620;SDS011;31345;51.522;10.702;2023-02-23T03:15:43;21.02;;;12.80;;
45620;SDS011;31345;51.522;10.702;2023-02-23T03:18:50;22.92;;;12.57;;
45620;SDS011;31345;51.522;10.702;2023-02-23T03:21:48;24.70;;;14.30;;
45620;SDS011;31345;51.522;10.702;2023-02-23T03:24:45;24.75;;;14.80;;
45620;SDS011;31345;51.522;10.702;2023-02-23T03:27:44;23.73;;;13.95;;
45620;SDS011;31345;51.522;10.702;2023-02-23T03:30:35;25.05;;;14.88;;
45620;SDS011;31345;51.522;10.702;2023-02-23T03:33:35;24.13;;;13.90;;
45620;SDS011;31345;51.522;10.702;2023-02-23T03:36:34;21.95;;;13.80;;
45620;SDS011;31345;51.522;10.702;2023-02-23T03:39:30;26.27;;;14.93;;
45620;SDS011;31345;51.522;10.702;2023-02-23T03:42:25;22.38;;;13.38;;
45620;SDS011;31345;51.522;10.702;2023-02-23T03:45:19;23.50;;;13.20;;
45620;SDS011;31345;51.522;10.702;2023-02-23T03:48:08;20.55;;;12.60;;
45620;SDS011;31345;51.522;10.702;2023-02-23T03:51:02;22.40;;;12.98;;
45620;SDS011;31345;51.522;10.702;2023-02-23T03:53:54;25.30;;;14.15;;
45620;SDS011;31345;51.522;10.702;2023-02-23T03:56:47;19.13;;;12.35;;
45620;SDS011;31345;51.522;10.702;2023-02-23T03:59:42;19.35;;;12.15;;
45620;SDS011;31345;51.522;10.702;2023-02-23T04:02:44;20.30;;;12.27;;
45620;SDS011;31345;51.522;10.702;2023-02-23T04:05:38;19.55;;;12.75;;
45620;SDS011;31345;51.522;10.702;2023-02-23T04:08:31;22.17;;;12.50;;
45620;SDS011;31345;51.522;10.702;2023-02-23T04:11:26;24.30;;;12.48;;
45620;SDS011;31345;51.522;10.702;2023-02-23T04:14:16;24.25;;;13.68;;
45620;SDS011;31345;51.522;10.702;2023-02-23T04:16:46;22.02;;;12.75;;
45620;SDS011;31345;51.522;10.702;2023-02-23T04:19:18;20.45;;;12.65;;
45620;SDS011;31345;51.522;10.702;2023-02-23T04:21:46;26.75;;;14.32;;
45620;SDS011;31345;51.522;10.702;2023-02-23T04:24:13;24.40;;;13.80;;
45620;SDS011;31345;51.522;10.702;2023-02-23T04:26:41;24.70;;;13.80;;
45620;SDS011;31345;51.522;10.702;2023-02-23T04:29:13;21.88;;;13.82;;
45620;SDS011;31345;51.522;10.702;2023-02-23T04:31:41;21.38;;;13.50;;
45620;SDS011;31345;51.522;10.702;2023-02-23T04:34:10;26.83;;;13.52;;
45620;SDS011;31345;51.522;10.702;2023-02-23T04:36:44;20.17;;;13.73;;
45620;SDS011;31345;51.522;10.702;2023-02-23T04:39:12;21.00;;;13.23;;
45620;SDS011;31345;51.522;10.702;2023-02-23T04:41:45;21.80;;;13.90;;
45620;SDS011;31345;51.522;10.702;2023-02-23T04:44:13;21.80;;;12.70;;
45620;SDS011;31345;51.522;10.702;2023-02-23T04:46:41;23.45;;;13.60;;
45620;SDS011;31345;51.522;10.702;2023-02-23T04:49:15;24.38;;;14.13;;
45620;SDS011;31345;51.522;10.702;2023-02-23T04:51:43;20.98;;;13.02;;
45620;SDS011;31345;51.522;10.702;2023-02-23T04:54:15;21.35;;;13.02;;
45620;SDS011;31345;51.522;10.702;2023-02-23T04:56:48;22.15;;;13.45;;
45620;SDS011;31345;51.522;10.702;2023-02-23T04:59:20;20.83;;;12.65;;
45620;SDS011;31345;51.522;10.702;2023-02-23T05:01:48;20.80;;;12.98;;
45620;SDS011;31345;51.522;10.702;2023-02-23T05:04:17;21.25;;;13.60;;
45620;SDS011;31345;51.522;10.702;2023-02-23T05:06:49;26.30;;;14.65;;
45620;SDS011;31345;51.522;10.702;2023-02-23T05:09:22;23.85;;;13.00;;
45620;SDS011;31345;51.522;10.702;2023-02-23T05:11:54;20.98;;;13.20;;
45620;SDS011;31345;51.522;10.702;2023-02-23T05:14:27;25.10;;;13.75;;
45620;SDS011;31345;51.522;10.702;2023-02-23T05:17:00;22.25;;;13.10;;
45620;SDS011;31345;51.522;10.702;2023-02-23T05:19:34;20.05;;;13.65;;
45620;SDS011;31345;51.522;10.702;2023-02-23T05:22:06;19.00;;;13.25;;
45620;SDS011;31345;51.522;10.702;2023-02-23T05:24:42;22.40;;;14.07;;
45620;SDS011;31345;51.522;10.702;2023-02-23T05:27:14;24.30;;;14.32;;
45620;SDS011;31345;51.522;10.702;2023-02-23T05:29:42;23.90;;;13.18;;
45620;SDS011;31345;51.522;10.702;2023-02-23T05:32:15;24.20;;;14.52;;
45620;SDS011;31345;51.522;10.702;2023-02-23T05:34:44;25.98;;;15.23;;
45620;SDS011;31345;51.522;10.702;2023-02-23T05:37:16;26.33;;;14.00;;
45620;SDS011;31345;51.522;10.702;2023-02-23T05:39:49;22.42;;;13.65;;
45620;SDS011;31345;51.522;10.702;2023-02-23T05:42:22;20.80;;;13.55;;
45620;SDS011;31345;51.522;10.702;2023-02-23T05:44:54;22.15;;;13.80;;
45620;SDS011;31345;51.522;10.702;2023-02-23T05:47:27;20.70;;;12.32;;
45620;SDS011;31345;51.522;10.702;2023-02-23T05:50:01;20.40;;;12.75;;
45620;SDS011;31345;51.522;10.702;2023-02-23T05:52:29;21.38;;;12.48;;
45620;SDS011;31345;51.522;10.702;2023-02-23T05:54:57;21.95;;;12.82;;
45620;SDS011;31345;51.522;10.702;2023-02-23T05:57:29;20.60;;;12.40;;
45620;SDS011;31345;51.522;10.702;2023-02-23T05:59:57;20.17;;;12.23;;
45620;SDS011;31345;51.522;10.702;2023-02-23T06:02:24;20.73;;;12.85;;
45620;SDS011;31345;51.522;10.702;2023-02-23T06:04:52;22.60;;;13.18;;
45620;SDS011;31345;51.522;10.702;2023-02-23T06:07:27;23.98;;;13.20;;
45620;SDS011;31345;51.522;10.702;2023-02-23T06:09:54;23.20;;;12.85;;
45620;SDS011;31345;51.522;10.702;2023-02-23T06:12:27;25.83;;;12.73;;
45620;SDS011;31345;51.522;10.702;2023-02-23T06:14:59;22.98;;;13.68;;
45620;SDS011;31345;51.522;10.702;2023-02-23T06:17:32;26.45;;;14.30;;
45620;SDS011;31345;51.522;10.702;2023-02-23T06:20:05;21.85;;;13.77;;
45620;SDS011;31345;51.522;10.702;2023-02-23T06:22:41;20.33;;;13.18;;
45620;SDS011;31345;51.522;10.702;2023-02-23T06:25:14;23.75;;;13.18;;
45620;SDS011;31345;51.522;10.702;2023-02-23T06:27:46;23.17;;;14.02;;
45620;SDS011;31345;51.522;10.702;2023-02-23T06:30:14;26.35;;;14.18;;
45620;SDS011;31345;51.522;10.702;2023-02-23T06:32:42;26.52;;;14.73;;
45620;SDS011;31345;51.522;10.702;2023-02-23T06:35:19;28.92;;;16.02;;
45620;SDS011;31345;51.522;10.702;2023-02-23T06:37:53;25.77;;;15.25;;
45620;SDS011;31345;51.522;10.702;2023-02-23T06:40:25;26.50;;;14.20;;
45620;SDS011;31345;51.522;10.702;2023-02-23T06:42:58;24.65;;;14.27;;
45620;SDS011;31345;51.522;10.702;2023-02-23T06:45:33;25.17;;;13.70;;
45620;SDS011;31345;51.522;10.702;2023-02-23T06:48:05;25.90;;;14.20;;
45620;SDS011;31345;51.522;10.702;2023-02-23T06:50:38;25.80;;;15.30;;
45620;SDS011;31345;51.522;10.702;2023-02-23T06:53:12;20.70;;;13.60;;
45620;SDS011;31345;51.522;10.702;2023-02-23T06:55:44;22.55;;;14.95;;
45620;SDS011;31345;51.522;10.702;2023-02-23T06:58:17;24.98;;;14.68;;
45620;SDS011;31345;51.522;10.702;2023-02-23T07:00:49;29.67;;;15.80;;
45620;SDS011;31345;51.522;10.702;2023-02-23T07:03:24;28.70;;;16.17;;
45620;SDS011;31345;51.522;10.702;2023-02-23T07:05:57;28.58;;;16.80;;
45620;SDS011;31345;51.522;10.702;2023-02-23T07:08:31;28.50;;;16.40;;
45620;SDS011;31345;51.522;10.702;2023-02-23T07:11:04;24.85;;;13.85;;
45620;SDS011;31345;51.522;10.702;2023-02-23T07:13:38;24.05;;;14.02;;
45620;SDS011;31345;51.522;10.702;2023-02-23T07:16:11;24.90;;;14.98;;
45620;SDS011;31345;51.522;10.702;2023-02-23T07:18:44;25.50;;;15.00;;
45620;SDS011;31345;51.522;10.702;2023-02-23T07:21:17;22.90;;;13.93;;
45620;SDS011;31345;51.522;10.702;2023-02-23T07:23:46;25.95;;;15.20;;
45620;SDS011;31345;51.522;10.702;2023-02-23T07:26:19;28.17;;;15.65;;
45620;SDS011;31345;51.522;10.702;2023-02-23T07:28:52;23.00;;;14.50;;
45620;SDS011;31345;51.522;10.702;2023-02-23T07:31:19;23.67;;;14.80;;
45620;SDS011;31345;51.522;10.702;2023-02-23T07:33:52;24.40;;;16.20;;
45620;SDS011;31345;51.522;10.702;2023-02-23T07:36:25;26.73;;;15.80;;
45620;SDS011;31345;51.522;10.702;2023-02-23T07:38:59;29.38;;;17.45;;
45620;SDS011;31345;51.522;10.702;2023-02-23T07:41:27;30.83;;;16.55;;
45620;SDS011;31345;51.522;10.702;2023-02-23T07:43:59;35.60;;;17.67;;
45620;SDS011;31345;51.522;10.702;2023-02-23T07:46:32;29.42;;;17.58;;
45620;SDS011;31345;51.522;10.702;2023-02-23T07:49:05;31.58;;;18.75;;
45620;SDS011;31345;51.522;10.702;2023-02-23T07:51:37;31.42;;;18.45;;
45620;SDS011;31345;51.522;10.702;2023-02-23T07:54:06;27.63;;;18.80;;
45620;SDS011;31345;51.522;10.702;2023-02-23T07:56:39;29.75;;;18.77;;
45620;SDS011;31345;51.522;10.702;2023-02-23T07:59:11;29.85;;;18.75;;
45620;SDS011;31345;51.522;10.702;2023-02-23T08:01:44;32.75;;;20.02;;
45620;SDS011;31345;51.522;10.702;2023-02-23T08:04:11;29.58;;;19.48;;
45620;SDS011;31345;51.522;10.702;2023-02-23T08:06:39;30.95;;;20.25;;
45620;SDS011;31345;51.522;10.702;2023-02-23T08:09:13;32.75;;;20.58;;
45620;SDS011;31345;51.522;10.702;2023-02-23T08:11:40;32.97;;;22.10;;
45620;SDS011;31345;51.522;10.702;2023-02-23T08:14:13;34.78;;;22.55;;
45620;SDS011;31345;51.522;10.702;2023-02-23T08:16:46;34.22;;;22.10;;
45620;SDS011;31345;51.522;10.702;2023-02-23T08:19:19;32.05;;;20.35;;
45620;SDS011;31345;51.522;10.702;2023-02-23T08:21:47;32.42;;;20.75;;
45620;SDS011;31345;51.522;10.702;2023-02-23T08:24:21;34.17;;;20.17;;
45620;SDS011;31345;51.522;10.702;2023-02-23T08:26:56;33.42;;;21.08;;
45620;SDS011;31345;51.522;10.702;2023-02-23T08:29:29;32.28;;;21.25;;
45620;SDS011;31345;51.522;10.702;2023-02-23T08:31:56;34.67;;;20.92;;
45620;SDS011;31345;51.522;10.702;2023-02-23T08:34:24;34.15;;;21.83;;
45620;SDS011;31345;51.522;10.702;2023-02-23T08:36:51;38.45;;;23.10;;
45620;SDS011;31345;51.522;10.702;2023-02-23T08:39:25;33.80;;;21.40;;
45620;SDS011;31345;51.522;10.702;2023-02-23T08:41:53;31.33;;;21.10;;
45620;SDS011;31345;51.522;10.702;2023-02-23T08:44:26;35.42;;;20.92;;
45620;SDS011;31345;51.522;10.702;2023-02-23T08:46:53;32.78;;;20.45;;
45620;SDS011;31345;51.522;10.702;2023-02-23T08:49:28;32.30;;;20.30;;
45620;SDS011;31345;51.522;10.702;2023-02-23T08:52:02;38.30;;;22.83;;
45620;SDS011;31345;51.522;10.702;2023-02-23T08:54:36;52.30;;;25.30;;
45620;SDS011;31345;51.522;10.702;2023-02-23T08:57:09;37.28;;;22.50;;
45620;SDS011;31345;51.522;10.702;2023-02-23T08:59:41;36.42;;;23.25;;
45620;SDS011;31345;51.522;10.702;2023-02-23T09:02:14;38.40;;;25.80;;
45620;SDS011;31345;51.522;10.702;2023-02-23T09:04:47;37.53;;;24.85;;
45620;SDS011;31345;51.522;10.702;2023-02-23T09:07:20;41.67;;;26.45;;
45620;SDS011;31345;51.522;10.702;2023-02-23T09:09:56;42.28;;;28.38;;
45620;SDS011;31345;51.522;10.702;2023-02-23T09:12:29;38.13;;;25.48;;
45620;SDS011;31345;51.522;10.702;2023-02-23T09:14:57;44.22;;;26.38;;
45620;SDS011;31345;51.522;10.702;2023-02-23T09:17:25;41.38;;;26.25;;
45620;SDS011;31345;51.522;10.702;2023-02-23T09:19:57;43.30;;;27.08;;
45620;SDS011;31345;51.522;10.702;2023-02-23T09:22:30;46.97;;;28.88;;
45620;SDS011;31345;51.522;10.702;2023-02-23T09:25:06;44.85;;;27.50;;
45620;SDS011;31345;51.522;10.702;2023-02-23T09:27:42;43.08;;;25.83;;
45620;SDS011;31345;51.522;10.702;2023-02-23T09:30:15;43.95;;;28.15;;
45620;SDS011;31345;51.522;10.702;2023-02-23T09:32:45;44.95;;;29.20;;
45620;SDS011;31345;51.522;10.702;2023-02-23T09:35:13;44.70;;;28.13;;
45620;SDS011;31345;51.522;10.702;2023-02-23T09:37:49;43.05;;;26.98;;
45620;SDS011;31345;51.522;10.702;2023-02-23T09:40:21;45.30;;;28.60;;
45620;SDS011;31345;51.522;10.702;2023-02-23T09:42:57;45.00;;;29.13;;
45620;SDS011;31345;51.522;10.702;2023-02-23T09:45:36;45.70;;;28.75;;
45620;SDS011;31345;51.522;10.702;2023-02-23T09:48:13;50.10;;;30.55;;
45620;SDS011;31345;51.522;10.702;2023-02-23T09:50:49;48.83;;;28.50;;
45620;SDS011;31345;51.522;10.702;2023-02-23T09:53:34;43.55;;;28.70;;
45620;SDS011;31345;51.522;10.702;2023-02-23T09:56:12;64.55;;;41.80;;
45620;SDS011;31345;51.522;10.702;2023-02-23T09:58:49;58.10;;;39.67;;
45620;SDS011;31345;51.522;10.702;2023-02-23T10:01:42;62.20;;;46.88;;
45620;SDS011;31345;51.522;10.702;2023-02-23T10:04:28;49.17;;;31.45;;
45620;SDS011;31345;51.522;10.702;2023-02-23T10:06:59;51.90;;;30.80;;
45620;SDS011;31345;51.522;10.702;2023-02-23T10:09:45;52.17;;;32.25;;
45620;SDS011;31345;51.522;10.702;2023-02-23T10:12:28;59.65;;;32.65;;
45620;SDS011;31345;51.522;10.702;2023-02-23T10:17:54;58.70;;;35.10;;
45620;SDS011;31345;51.522;10.702;2023-02-23T10:20:32;59.35;;;34.58;;
45620;SDS011;31345;51.522;10.702;2023-02-23T10:23:07;58.15;;;35.55;;
45620;SDS011;31345;51.522;10.702;2023-02-23T10:25:40;58.75;;;35.78;;
45620;SDS011;31345;51.522;10.702;2023-02-23T10:28:20;62.45;;;37.63;;
45620;SDS011;31345;51.522;10.702;2023-02-23T10:30:48;66.93;;;40.05;;
45620;SDS011;31345;51.522;10.702;2023-02-23T10:33:24;66.50;;;37.67;;
45620;SDS011;31345;51.522;10.702;2023-02-23T10:36:08;71.60;;;40.40;;
45620;SDS011;31345;51.522;10.702;2023-02-23T10:38:40;68.22;;;40.75;;
45620;SDS011;31345;51.522;10.702;2023-02-23T10:41:12;68.95;;;40.42;;
45620;SDS011;31345;51.522;10.702;2023-02-23T10:43:46;66.82;;;39.88;;
45620;SDS011;31345;51.522;10.702;2023-02-23T10:46:20;76.35;;;43.05;;
45620;SDS011;31345;51.522;10.702;2023-02-23T10:48:55;71.90;;;41.20;;
45620;SDS011;31345;51.522;10.702;2023-02-23T10:51:31;70.43;;;40.67;;
45620;SDS011;31345;51.522;10.702;2023-02-23T10:57:02;72.93;;;39.42;;
45620;SDS011;31345;51.522;10.702;2023-02-23T10:59:33;71.32;;;39.83;;
45620;SDS011;31345;51.522;10.702;2023-02-23T11:02:14;67.72;;;37.88;;
45620;SDS011;31345;51.522;10.702;2023-02-23T11:04:54;68.45;;;38.83;;
45620;SDS011;31345;51.522;10.702;2023-02-23T11:07:28;64.22;;;38.03;;
45620;SDS011;31345;51.522;10.702;2023-02-23T11:09:58;70.75;;;39.13;;
45620;SDS011;31345;51.522;10.702;2023-02-23T11:12:49;66.88;;;38.83;;
45620;SDS011;31345;51.522;10.702;2023-02-23T11:15:27;65.15;;;38.15;;
45620;SDS011;31345;51.522;10.702;2023-02-23T11:18:01;70.55;;;38.72;;
45620;SDS011;31345;51.522;10.702;2023-02-23T11:20:32;65.13;;;38.97;;
45620;SDS011;31345;51.522;10.702;2023-02-23T11:23:07;70.00;;;38.47;;
45620;SDS011;31345;51.522;10.702;2023-02-23T11:25:41;65.82;;;39.40;;
45620;SDS011;31345;51.522;10.702;2023-02-23T11:28:14;63.90;;;38.08;;
45620;SDS011;31345;51.522;10.702;2023-02-23T11:30:52;59.73;;;37.43;;
45620;SDS011;31345;51.522;10.702;2023-02-23T11:33:20;61.47;;;38.33;;
45620;SDS011;31345;51.522;10.702;2023-02-23T11:35:57;64.63;;;37.28;;
45620;SDS011;31345;51.522;10.702;2023-02-23T11:38:30;70.28;;;39.40;;
45620;SDS011;31345;51.522;10.702;2023-02-23T11:41:04;69.43;;;40.40;;
45620;SDS011;31345;51.522;10.702;2023-02-23T11:43:36;70.55;;;40.38;;
45620;SDS011;31345;51.522;10.702;2023-02-23T11:46:10;77.97;;;41.58;;
45620;SDS011;31345;51.522;10.702;2023-02-23T11:48:47;69.32;;;41.15;;
45620;SDS011;31345;51.522;10.702;2023-02-23T11:51:23;73.32;;;40.72;;
45620;SDS011;31345;51.522;10.702;2023-02-23T11:53:58;73.25;;;39.92;;
45620;SDS011;31345;51.522;10.702;2023-02-23T11:56:33;77.20;;;43.20;;
45620;SDS011;31345;51.522;10.702;2023-02-23T11:59:07;78.97;;;42.80;;
45620;SDS011;31345;51.522;10.702;2023-02-23T12:01:52;73.55;;;43.97;;
45620;SDS011;31345;51.522;10.702;2023-02-23T12:04:28;79.72;;;43.83;;
45620;SDS011;31345;51.522;10.702;2023-02-23T12:09:53;79.75;;;45.13;;
45620;SDS011;31345;51.522;10.702;2023-02-23T12:15:09;88.47;;;48.55;;
45620;SDS011;31345;51.522;10.702;2023-02-23T12:17:48;83.63;;;45.95;;
45620;SDS011;31345;51.522;10.702;2023-02-23T12:20:25;153.32;;;83.20;;
45620;SDS011;31345;51.522;10.702;2023-02-23T12:23:02;175.20;;;99.43;;
45620;SDS011;31345;51.522;10.702;2023-02-23T12:25:37;74.70;;;44.53;;
45620;SDS011;31345;51.522;10.702;2023-02-23T12:28:18;75.32;;;44.65;;
45620;SDS011;31345;51.522;10.702;2023-02-23T12:30:57;79.57;;;45.78;;
45620;SDS011;31345;51.522;10.702;2023-02-23T12:33:32;119.28;;;68.68;;
45620;SDS011;31345;51.522;10.702;2023-02-23T12:36:11;142.77;;;81.68;;
45620;SDS011;31345;51.522;10.702;2023-02-23T12:38:53;123.13;;;72.07;;
45620;SDS011;31345;51.522;10.702;2023-02-23T12:41:32;90.85;;;51.22;;
45620;SDS011;31345;51.522;10.702;2023-02-23T12:44:03;98.50;;;54.13;;
45620;SDS011;31345;51.522;10.702;2023-02-23T12:46:45;82.57;;;45.72;;
45620;SDS011;31345;51.522;10.702;2023-02-23T12:49:24;94.72;;;50.70;;
45620;SDS011;31345;51.522;10.702;2023-02-23T12:52:05;89.63;;;48.00;;
45620;SDS011;31345;51.522;10.702;2023-02-23T12:54:39;91.45;;;51.45;;
45620;SDS011;31345;51.522;10.702;2023-02-23T12:57:10;94.32;;;54.05;;
45620;SDS011;31345;51.522;10.702;2023-02-23T13:00:06;89.55;;;50.90;;
45620;SDS011;31345;51.522;10.702;2023-02-23T13:03:17;87.53;;;47.65;;
45620;SDS011;31345;51.522;10.702;2023-02-23T13:06:15;82.82;;;46.03;;
45620;SDS011;31345;51.522;10.702;2023-02-23T13:08:56;87.68;;;46.50;;
45620;SDS011;31345;51.522;10.702;2023-02-23T13:11:43;86.30;;;48.10;;
45620;SDS011;31345;51.522;10.702;2023-02-23T13:14:26;84.80;;;47.55;;
45620;SDS011;31345;51.522;10.702;2023-02-23T13:16:59;83.05;;;45.20;;
45620;SDS011;31345;51.522;10.702;2023-02-23T13:19:33;80.40;;;42.58;;
45620;SDS011;31345;51.522;10.702;2023-02-23T13:22:14;82.55;;;45.10;;
45620;SDS011;31345;51.522;10.702;2023-02-23T13:24:57;85.05;;;45.17;;
45620;SDS011;31345;51.522;10.702;2023-02-23T13:27:29;86.97;;;46.47;;
45620;SDS011;31345;51.522;10.702;2023-02-23T13:30:08;92.35;;;48.80;;
45620;SDS011;31345;51.522;10.702;2023-02-23T13:32:42;91.47;;;46.72;;
45620;SDS011;31345;51.522;10.702;2023-02-23T13:35:15;89.15;;;47.85;;
45620;SDS011;31345;51.522;10.702;2023-02-23T13:37:52;85.15;;;48.25;;
45620;SDS011;31345;51.522;10.702;2023-02-23T13:40:28;90.32;;;49.13;;
45620;SDS011;31345;51.522;10.702;2023-02-23T13:43:07;86.15;;;47.80;;
45620;SDS011;31345;51.522;10.702;2023-02-23T13:46:03;90.07;;;48.20;;
45620;SDS011;31345;51.522;10.702;2023-02-23T13:48:50;95.45;;;50.25;;
45620;SDS011;31345;51.522;10.702;2023-02-23T13:51:23;98.40;;;51.63;;
45620;SDS011;31345;51.522;10.702;2023-02-23T13:54:16;91.13;;;48.05;;
45620;SDS011;31345;51.522;10.702;2023-02-23T13:56:55;86.63;;;46.95;;
45620;SDS011;31345;51.522;10.702;2023-02-23T13:59:35;86.60;;;47.17;;
45620;SDS011;31345;51.522;10.702;2023-02-23T14:02:19;85.88;;;46.60;;
45620;SDS011;31345;51.522;10.702;2023-02-23T14:05:00;85.88;;;45.55;;
45620;SDS011;31345;51.522;10.702;2023-02-23T14:07:37;84.28;;;45.03;;
45620;SDS011;31345;51.522;10.702;2023-02-23T14:10:16;88.18;;;48.53;;
45620;SDS011;31345;51.522;10.702;2023-02-23T14:13:09;86.25;;;44.53;;
45620;SDS011;31345;51.522;10.702;2023-02-23T14:16:07;79.90;;;44.75;;
45620;SDS011;31345;51.522;10.702;2023-02-23T14:21:41;108.45;;;59.92;;
45620;SDS011;31345;51.522;10.702;2023-02-23T14:24:20;85.00;;;46.05;;
45620;SDS011;31345;51.522;10.702;2023-02-23T14:30:12;86.38;;;45.88;;
45620;SDS011;31345;51.522;10.702;2023-02-23T14:32:59;96.70;;;50.78;;
45620;SDS011;31345;51.522;10.702;2023-02-23T14:35:36;123.22;;;71.43;;
45620;SDS011;31345;51.522;10.702;2023-02-23T14:38:28;68.75;;;42.15;;
45620;SDS011;31345;51.522;10.702;2023-02-23T14:41:03;128.45;;;71.32;;
45620;SDS011;31345;51.522;10.702;2023-02-23T14:43:44;113.45;;;65.35;;
45620;SDS011;31345;51.522;10.702;2023-02-23T14:46:17;79.80;;;42.65;;
45620;SDS011;31345;51.522;10.702;2023-02-23T14:48:59;72.22;;;38.38;;
45620;SDS011;31345;51.522;10.702;2023-02-23T14:51:33;78.03;;;43.78;;
45620;SDS011;31345;51.522;10.702;2023-02-23T14:54:18;77.30;;;42.70;;
45620;SDS011;31345;51.522;10.702;2023-02-23T14:56:57;75.30;;;42.70;;
45620;SDS011;31345;51.522;10.702;2023-02-23T14:59:36;69.05;;;38.92;;
45620;SDS011;31345;51.522;10.702;2023-02-23T15:02:07;70.57;;;38.53;;
45620;SDS011;31345;51.522;10.702;2023-02-23T15:04:41;68.53;;;38.63;;
45620;SDS011;31345;51.522;10.702;2023-02-23T15:07:14;64.53;;;39.00;;
45620;SDS011;31345;51.522;10.702;2023-02-23T15:09:54;73.82;;;40.63;;
45620;SDS011;31345;51.522;10.702;2023-02-23T15:12:24;70.75;;;39.42;;
45620;SDS011;31345;51.522;10.702;2023-02-23T15:14:56;68.53;;;39.07;;
45620;SDS011;31345;51.522;10.702;2023-02-23T15:17:27;65.80;;;38.22;;
45620;SDS011;31345;51.522;10.702;2023-02-23T15:19:58;70.82;;;38.38;;
45620;SDS011;31345;51.522;10.702;2023-02-23T15:22:29;67.32;;;37.03;;
45620;SDS011;31345;51.522;10.702;2023-02-23T15:25:05;66.07;;;38.30;;
45620;SDS011;31345;51.522;10.702;2023-02-23T15:27:46;66.50;;;37.88;;